Aérodrome :
LOGIN :

S'inscrire | Disclaimer

   EN    FR    IT 

 










Légende :    VFR   VFR Marginal   IFR   IFR Intensif   IFR Très Intensif
Visi : 
Plafond : 
>= 8 km
>= 3000ft
5 à 8 km
1000 à 3000 ft
1500m à 5 km
500 à 1000 ft
800 à 1500m
200 à 500 ft
< 800m
< 200 ft
Symboles :   Orages  Brouillard  Fortes neiges  Fortes précipitations  Vent > 20 kt
SIGMETs :   Divers  Orages  Givrage  Turbulence  Onde Orograph.  Cendres Volcan.






- Altitude de l'aérodrome : 433 ft
- Code IATA : CCF


LFMK - Carcassonne

DERNIER METAR :
  • 220630Z AUTO 09014KT 7000 BKN005 OVC012 08/08 Q0996 BECMG 28010KT 3000 RA BKN010 FEW030CB

METARs EXPIRÉS :
  • 220600Z AUTO 09010KT 9000 BKN007 OVC011 08/08 Q0997 TEMPO 2000 BR BKN003
  • 220530Z AUTO 09011KT 7000 SCT005 BKN011 BKN110 07/07 Q0998 TEMPO 2000 BR BKN003
  • 220500Z AUTO 11005KT 070V150 6000 FEW005 07/07 Q0999 TEMPO 2000 BR BKN003
  • 220430Z AUTO 09009KT 070V130 6000 BKN005 BKN100 BKN150 07/07 Q0999 TEMPO 2000 BR
  • 220400Z AUTO 08009KT 6000 OVC004 08/07 Q1001 TEMPO 2000 BR

TAF AMD TAF LFMK
Valide du 22 à 06h jusqu'au 23 à 03h UTC


220618Z 2206/2303 08012KT 9999 OVC020
TEMPO 2206/2207 2000 BR BKN003
BECMG 2207/2209 28010KT RA BKN010 FEW030CB
PROB40
TEMPO 2208/2211 3000 TSRA
BECMG 2211/2213 28020G30KT
TEMPO 2211/2224 -RA BKN012
PROB40
TEMPO 2213/2218 28030G45KT



MET'MAP, la Météo Aéronautique d'un coup d'oeil ! - Copyright ORBIFLY Décembre 2007 - Disclaimer

ORBIFLY MET'MAP TEAM :

Programmation & Développement : Alexandra Zaïnal
Sur une idée originale de : Baudouin d'Aumeries
Assistance à la programmation : Marc-Olivier Méhu
Soutien technique & logistique : Manuel Goepfert

Contact : metmap@orbifly.com




SOURCES & CREDITS :

   NOAA